createdAt,value
2023-03-26T00:02:07.780Z,6.40
2023-03-26T00:04:36.239Z,6.12
2023-03-26T00:07:05.227Z,6.29
2023-03-26T00:09:35.417Z,6.13
2023-03-26T00:12:04.303Z,6.03
2023-03-26T00:14:33.511Z,6.07
2023-03-26T00:17:02.512Z,6.02
2023-03-26T00:19:30.929Z,6.13
2023-03-26T00:22:00.651Z,5.97
2023-03-26T00:24:30.584Z,6.11
2023-03-26T00:27:01.618Z,6.21
2023-03-26T00:29:33.378Z,6.00
2023-03-26T00:32:02.214Z,6.01
2023-03-26T00:34:31.020Z,6.17
2023-03-26T00:37:02.652Z,6.16
2023-03-26T00:39:35.746Z,6.05
2023-03-26T00:42:08.329Z,6.33
2023-03-26T00:44:37.377Z,6.26
2023-03-26T00:47:06.552Z,6.16
2023-03-26T00:49:35.116Z,6.11
2023-03-26T00:52:04.022Z,6.25
2023-03-26T00:54:32.839Z,6.12
2023-03-26T00:57:01.771Z,6.18
2023-03-26T00:59:35.919Z,6.19
2023-03-26T01:02:05.518Z,6.46
2023-03-26T01:04:37.633Z,6.52
2023-03-26T01:07:11.634Z,6.52
2023-03-26T01:09:45.838Z,6.46
2023-03-26T01:12:17.230Z,6.28
2023-03-26T01:14:51.113Z,6.33
2023-03-26T01:17:22.039Z,6.34
2023-03-26T01:19:54.830Z,6.44
2023-03-26T01:22:25.954Z,6.46
2023-03-26T01:24:56.832Z,6.21
2023-03-26T01:27:36.005Z,6.53
2023-03-26T01:30:11.992Z,6.56
2023-03-26T01:32:50.221Z,6.59
2023-03-26T01:35:26.495Z,6.48
2023-03-26T01:38:12.077Z,6.55
2023-03-26T01:40:49.653Z,6.55
2023-03-26T01:43:26.026Z,6.32
2023-03-26T01:45:55.880Z,6.41
2023-03-26T01:48:31.615Z,6.61
2023-03-26T01:51:00.613Z,6.59
2023-03-26T01:53:29.522Z,6.62
2023-03-26T01:56:05.513Z,6.58
2023-03-26T01:58:38.763Z,6.61
2023-03-26T02:01:18.114Z,6.67
2023-03-26T02:03:52.690Z,6.42
2023-03-26T02:06:25.927Z,6.42
2023-03-26T02:08:58.214Z,6.54
2023-03-26T02:11:35.463Z,6.61
2023-03-26T02:14:06.168Z,6.44
2023-03-26T02:16:35.232Z,6.35
2023-03-26T02:19:05.692Z,6.45
2023-03-26T02:21:35.186Z,6.51
2023-03-26T02:24:04.303Z,6.25
2023-03-26T02:26:38.822Z,6.02
2023-03-26T02:29:12.476Z,6.19
2023-03-26T02:31:43.660Z,6.20
2023-03-26T02:34:12.635Z,6.09
2023-03-26T02:36:48.290Z,6.23
2023-03-26T02:39:17.263Z,5.99
2023-03-26T02:41:55.604Z,6.13
2023-03-26T02:44:24.288Z,6.47
2023-03-26T02:47:01.759Z,6.43
2023-03-26T02:49:42.615Z,6.23
2023-03-26T02:52:17.258Z,6.48
2023-03-26T02:54:48.056Z,6.31
2023-03-26T02:57:23.634Z,6.51
2023-03-26T03:00:11.144Z,6.38
2023-03-26T03:02:40.361Z,6.38
2023-03-26T03:05:32.652Z,6.26
2023-03-26T03:08:22.661Z,6.46
2023-03-26T03:11:11.384Z,6.62
2023-03-26T03:13:47.138Z,6.81
2023-03-26T03:16:22.574Z,6.41
2023-03-26T03:18:58.079Z,6.77
2023-03-26T03:21:36.475Z,6.73
2023-03-26T03:24:05.639Z,6.76
2023-03-26T03:26:42.527Z,6.86
2023-03-26T03:29:48.352Z,6.91
2023-03-26T03:32:43.189Z,6.86
2023-03-26T03:35:12.347Z,6.91
2023-03-26T03:37:42.432Z,6.67
2023-03-26T03:40:12.197Z,6.64
2023-03-26T03:42:43.312Z,6.63
2023-03-26T03:45:14.922Z,6.75
2023-03-26T03:47:56.257Z,6.75
2023-03-26T03:50:35.516Z,6.36
2023-03-26T03:53:27.312Z,6.56
2023-03-26T03:56:02.111Z,6.44
2023-03-26T03:59:06.407Z,6.64
2023-03-26T04:01:38.966Z,6.98
2023-03-26T04:04:11.580Z,6.89
2023-03-26T04:06:56.356Z,7.07
2023-03-26T04:09:27.708Z,7.08
2023-03-26T04:12:00.500Z,6.60
2023-03-26T04:14:42.491Z,6.50
2023-03-26T04:17:22.059Z,6.73
2023-03-26T04:19:53.213Z,6.78
2023-03-26T04:22:22.276Z,6.58
2023-03-26T04:25:02.588Z,6.70
2023-03-26T04:27:37.253Z,6.58
2023-03-26T04:30:29.144Z,6.80
2023-03-26T04:33:15.612Z,6.70
2023-03-26T04:35:48.552Z,6.85
2023-03-26T04:38:18.966Z,6.58
2023-03-26T04:40:50.916Z,6.63
2023-03-26T04:43:50.863Z,6.51
2023-03-26T04:46:48.860Z,6.06
2023-03-26T04:49:28.990Z,6.80
2023-03-26T04:51:58.169Z,6.47
2023-03-26T04:54:46.369Z,6.57
2023-03-26T04:57:21.634Z,6.41
2023-03-26T04:59:55.001Z,6.81
2023-03-26T05:02:24.929Z,6.77
2023-03-26T05:04:57.266Z,6.89
2023-03-26T05:07:29.801Z,6.86
2023-03-26T05:10:03.600Z,7.08
2023-03-26T05:13:01.872Z,7.05
2023-03-26T05:15:37.648Z,6.69
2023-03-26T05:18:10.809Z,6.97
2023-03-26T05:20:44.737Z,7.03
2023-03-26T05:23:13.837Z,6.45
2023-03-26T05:25:47.225Z,6.68
2023-03-26T05:28:24.541Z,6.79
2023-03-26T05:31:03.523Z,6.65
2023-03-26T05:33:37.378Z,6.54
2023-03-26T05:36:17.769Z,6.74
2023-03-26T05:38:52.369Z,6.66
2023-03-26T05:41:56.889Z,6.80
2023-03-26T05:44:34.429Z,7.02
2023-03-26T05:47:07.814Z,6.87
2023-03-26T05:49:36.828Z,6.96
2023-03-26T05:52:07.255Z,7.22
2023-03-26T05:54:55.041Z,6.98
2023-03-26T05:57:44.169Z,7.15
2023-03-26T06:00:42.287Z,7.66
2023-03-26T06:03:14.926Z,7.43
2023-03-26T06:06:15.734Z,7.42
2023-03-26T06:09:01.692Z,7.07
2023-03-26T06:11:33.017Z,7.46
2023-03-26T06:14:03.739Z,7.43
2023-03-26T06:16:33.146Z,7.57
2023-03-26T06:19:14.157Z,7.25
2023-03-26T06:22:12.568Z,7.11
2023-03-26T06:25:15.293Z,7.02
2023-03-26T06:28:04.058Z,6.92
2023-03-26T06:30:50.918Z,6.76
2023-03-26T06:33:34.325Z,6.91
2023-03-26T06:36:03.617Z,6.86
2023-03-26T06:38:32.828Z,7.05
2023-03-26T06:41:06.867Z,7.08
2023-03-26T06:43:39.181Z,6.90
2023-03-26T06:46:17.391Z,7.22
2023-03-26T06:49:06.570Z,6.88
2023-03-26T06:51:52.124Z,6.81
2023-03-26T06:54:40.059Z,7.36
2023-03-26T06:57:27.410Z,7.19
2023-03-26T07:00:16.194Z,7.61
2023-03-26T07:03:04.963Z,7.90
2023-03-26T07:05:54.066Z,8.47
2023-03-26T07:08:43.309Z,9.46
2023-03-26T07:11:30.947Z,9.33
2023-03-26T07:14:10.153Z,9.26
2023-03-26T07:17:01.737Z,9.09
2023-03-26T07:19:58.259Z,9.78
2023-03-26T07:22:29.171Z,10.57
2023-03-26T07:25:08.401Z,10.05
2023-03-26T07:28:12.704Z,8.94
2023-03-26T07:31:22.422Z,9.06
2023-03-26T07:34:23.593Z,9.12
2023-03-26T07:37:14.092Z,8.60
2023-03-26T07:40:05.042Z,8.53
2023-03-26T07:43:01.834Z,8.73
2023-03-26T07:45:41.104Z,8.43
2023-03-26T07:48:29.661Z,8.42
2023-03-26T07:51:11.538Z,8.79
2023-03-26T07:53:51.415Z,8.87
2023-03-26T07:56:41.613Z,8.73
2023-03-26T07:59:49.222Z,9.12
2023-03-26T08:03:09.944Z,8.72
2023-03-26T08:06:03.418Z,9.27
2023-03-26T08:09:01.226Z,9.32
2023-03-26T08:11:54.520Z,9.44
2023-03-26T08:14:34.827Z,9.55
2023-03-26T08:17:08.065Z,9.04
2023-03-26T08:20:06.825Z,8.38
2023-03-26T08:22:41.181Z,8.77
2023-03-26T08:25:24.464Z,8.69
2023-03-26T08:28:03.143Z,8.65
2023-03-26T08:30:32.730Z,9.23
2023-03-26T08:33:03.960Z,9.23
2023-03-26T08:35:35.296Z,9.25
2023-03-26T08:38:05.778Z,9.54
2023-03-26T08:41:19.505Z,9.70
2023-03-26T08:44:05.980Z,10.27
2023-03-26T08:47:01.409Z,8.96
2023-03-26T08:49:59.383Z,9.35
2023-03-26T08:52:57.132Z,8.66
2023-03-26T08:55:42.098Z,9.42
2023-03-26T08:58:54.492Z,8.98
2023-03-26T09:01:48.002Z,8.54
2023-03-26T09:04:44.419Z,8.54
2023-03-26T09:07:54.929Z,8.35
2023-03-26T09:10:38.387Z,8.80
2023-03-26T09:13:39.720Z,8.99
2023-03-26T09:16:35.665Z,9.89
2023-03-26T09:19:37.591Z,10.37
2023-03-26T09:22:33.236Z,10.67
2023-03-26T09:25:43.843Z,11.41
2023-03-26T09:28:29.221Z,10.52
2023-03-26T09:31:11.246Z,10.05
2023-03-26T09:33:56.471Z,10.42
2023-03-26T09:36:57.734Z,10.00
2023-03-26T09:39:37.592Z,9.53
2023-03-26T09:42:19.355Z,9.18
2023-03-26T09:45:22.709Z,9.27
2023-03-26T09:48:10.471Z,9.14
2023-03-26T09:50:53.237Z,9.12
2023-03-26T09:53:50.750Z,9.11
2023-03-26T09:56:27.378Z,9.82
2023-03-26T09:59:34.106Z,10.39
2023-03-26T10:02:17.247Z,10.33
2023-03-26T10:05:06.397Z,10.67
2023-03-26T10:07:57.234Z,10.75
2023-03-26T10:10:33.409Z,12.14
2023-03-26T10:13:14.590Z,11.48
2023-03-26T10:15:58.649Z,10.43
2023-03-26T10:18:34.819Z,11.08
2023-03-26T10:21:07.700Z,11.56
2023-03-26T10:24:10.413Z,11.27
2023-03-26T10:27:08.557Z,12.62
2023-03-26T10:29:56.053Z,15.91
2023-03-26T10:32:31.652Z,15.89
2023-03-26T10:35:10.004Z,14.90
2023-03-26T10:37:49.219Z,11.79
2023-03-26T10:40:22.554Z,8.16
2023-03-26T10:43:01.316Z,5.91
2023-03-26T10:45:38.306Z,5.43
2023-03-26T10:48:54.656Z,5.95
2023-03-26T10:51:35.649Z,6.56
2023-03-26T10:54:09.678Z,7.20
2023-03-26T10:56:42.768Z,8.82
2023-03-26T10:59:14.505Z,11.86
2023-03-26T11:01:46.165Z,15.08
2023-03-26T11:04:25.708Z,17.51
2023-03-26T11:07:04.934Z,16.23
2023-03-26T11:09:39.457Z,13.71
2023-03-26T11:12:26.519Z,11.07
2023-03-26T11:15:07.536Z,10.18
2023-03-26T11:17:44.613Z,9.85
2023-03-26T11:20:18.495Z,9.11
2023-03-26T11:23:00.457Z,11.11
2023-03-26T11:25:37.185Z,14.79
2023-03-26T11:28:15.601Z,12.61
2023-03-26T11:30:49.998Z,10.94
2023-03-26T11:33:24.154Z,10.02
2023-03-26T11:35:56.322Z,9.99
2023-03-26T11:38:31.949Z,10.49
2023-03-26T11:41:01.613Z,10.25
2023-03-26T11:43:52.498Z,11.19
2023-03-26T11:46:24.714Z,12.83
2023-03-26T11:48:59.551Z,13.52
2023-03-26T11:51:33.160Z,12.80
2023-03-26T11:54:04.360Z,12.47
2023-03-26T11:56:34.900Z,13.58
2023-03-26T11:59:07.215Z,16.83
2023-03-26T12:01:50.668Z,16.42
2023-03-26T12:04:21.312Z,13.85
2023-03-26T12:06:56.765Z,11.67
2023-03-26T12:09:27.271Z,10.95
2023-03-26T12:12:05.161Z,9.68
2023-03-26T12:14:36.390Z,10.00
2023-03-26T12:17:08.001Z,9.14
2023-03-26T12:19:39.598Z,9.20
2023-03-26T12:22:29.597Z,10.05
2023-03-26T12:25:16.838Z,10.08
2023-03-26T12:27:46.596Z,10.12
2023-03-26T12:30:22.657Z,10.47
2023-03-26T12:32:53.812Z,14.44
2023-03-26T12:35:25.786Z,18.51
2023-03-26T12:37:58.089Z,20.62
2023-03-26T12:40:34.485Z,16.95
2023-03-26T12:44:52.998Z,17.81
2023-03-26T12:47:55.491Z,17.86
2023-03-26T12:48:46.060Z,15.20
2023-03-26T12:51:21.728Z,14.62
2023-03-26T12:54:05.373Z,13.16
2023-03-26T12:56:40.964Z,11.71
2023-03-26T12:59:22.092Z,10.65
2023-03-26T13:01:56.897Z,10.21
2023-03-26T13:05:02.245Z,10.29
2023-03-26T13:07:43.896Z,11.56
2023-03-26T13:10:31.741Z,13.26
2023-03-26T13:13:12.220Z,13.74
2023-03-26T13:15:42.803Z,15.65
2023-03-26T13:18:21.538Z,17.79
2023-03-26T13:20:52.882Z,17.04
2023-03-26T13:23:31.055Z,17.30
2023-03-26T13:26:07.209Z,16.46
2023-03-26T13:28:43.946Z,15.82
2023-03-26T13:31:19.326Z,15.47
2023-03-26T13:33:51.852Z,15.43
2023-03-26T13:36:26.075Z,14.28
2023-03-26T13:39:04.897Z,12.72
2023-03-26T13:41:44.069Z,11.66
2023-03-26T13:44:18.705Z,10.85
2023-03-26T13:46:50.564Z,10.81
2023-03-26T13:49:33.180Z,9.98
2023-03-26T13:52:04.672Z,9.84
2023-03-26T13:54:37.142Z,9.37
2023-03-26T13:57:10.653Z,9.35
2023-03-26T13:59:45.260Z,9.37
2023-03-26T14:02:22.683Z,10.09
2023-03-26T14:04:53.843Z,11.91
2023-03-26T14:07:27.047Z,11.84
2023-03-26T14:09:58.571Z,12.45
2023-03-26T14:12:49.384Z,12.32
2023-03-26T14:15:26.415Z,13.22
2023-03-26T14:18:02.989Z,12.35
2023-03-26T14:20:52.510Z,11.56
2023-03-26T14:23:50.547Z,11.26
2023-03-26T14:26:27.586Z,11.08
2023-03-26T14:33:27.444Z,11.04
2023-03-26T14:36:01.363Z,11.45
2023-03-26T14:39:12.016Z,12.13
2023-03-26T14:41:48.532Z,12.33
2023-03-26T14:44:52.498Z,13.15
2023-03-26T14:47:22.806Z,13.66
2023-03-26T14:50:28.775Z,14.42
2023-03-26T14:53:00.815Z,14.74
2023-03-26T14:55:44.826Z,13.52
2023-03-26T14:58:30.012Z,13.34
2023-03-26T15:01:20.790Z,13.12
2023-03-26T15:04:10.695Z,13.24
2023-03-26T15:07:31.353Z,12.87
2023-03-26T15:10:22.708Z,13.35
2023-03-26T15:13:12.260Z,13.00
2023-03-26T15:16:18.256Z,14.30
2023-03-26T15:19:22.178Z,12.99
2023-03-26T15:22:12.979Z,12.91
2023-03-26T15:25:12.637Z,13.55
2023-03-26T15:27:57.563Z,13.51
2023-03-26T15:31:06.750Z,13.87
2023-03-26T15:34:20.121Z,13.95
2023-03-26T15:37:39.444Z,14.34
2023-03-26T15:40:30.622Z,15.42
2023-03-26T15:43:08.007Z,15.88
2023-03-26T15:45:38.621Z,15.34
2023-03-26T15:48:26.013Z,13.98
2023-03-26T15:51:00.229Z,13.79
2023-03-26T15:53:39.903Z,12.16
2023-03-26T15:56:22.200Z,12.59
2023-03-26T15:58:57.201Z,13.54
2023-03-26T16:01:37.509Z,12.87
2023-03-26T16:04:16.049Z,10.72
2023-03-26T16:06:50.183Z,9.88
2023-03-26T16:09:35.477Z,9.68
2023-03-26T16:12:29.052Z,9.51
2023-03-26T16:15:26.986Z,9.44
2023-03-26T16:18:30.104Z,9.24
2023-03-26T16:21:31.672Z,9.45
2023-03-26T16:24:19.368Z,9.66
2023-03-26T16:26:56.668Z,9.38
2023-03-26T16:29:28.155Z,9.11
2023-03-26T16:32:07.288Z,9.01
2023-03-26T16:34:42.169Z,9.25
2023-03-26T16:37:37.244Z,9.32
2023-03-26T16:40:28.689Z,9.11
2023-03-26T16:43:08.227Z,9.08
2023-03-26T16:45:39.397Z,9.12
2023-03-26T16:48:18.602Z,9.09
2023-03-26T16:50:53.639Z,8.74
2023-03-26T16:53:30.820Z,8.73
2023-03-26T16:56:01.255Z,8.40
2023-03-26T16:58:34.183Z,8.52
2023-03-26T17:01:09.850Z,8.47
2023-03-26T17:03:51.253Z,8.36
2023-03-26T17:06:47.015Z,8.24
2023-03-26T17:09:24.829Z,8.29
2023-03-26T17:12:00.756Z,7.95
2023-03-26T17:14:48.912Z,8.22
2023-03-26T17:17:32.147Z,8.08
2023-03-26T17:20:08.623Z,8.13
2023-03-26T17:22:42.082Z,8.01
2023-03-26T17:25:33.603Z,7.81
2023-03-26T17:28:24.331Z,7.83
2023-03-26T17:31:02.156Z,7.92
2023-03-26T17:33:34.805Z,7.90
2023-03-26T17:36:29.653Z,7.90
2023-03-26T17:39:02.464Z,7.77
2023-03-26T17:41:55.211Z,7.74
2023-03-26T17:44:38.732Z,7.70
2023-03-26T17:47:12.349Z,7.60
2023-03-26T17:49:42.672Z,7.54
2023-03-26T17:52:17.500Z,7.55
2023-03-26T17:54:48.079Z,7.56
2023-03-26T17:57:22.602Z,7.48
2023-03-26T17:59:54.876Z,7.56
2023-03-26T18:02:32.909Z,7.60
2023-03-26T18:05:02.230Z,7.59
2023-03-26T18:08:15.151Z,7.42
2023-03-26T18:11:10.523Z,7.30
2023-03-26T18:14:14.197Z,7.24
2023-03-26T18:16:44.846Z,7.19
2023-03-26T18:19:19.404Z,7.22
2023-03-26T18:21:50.786Z,7.08
2023-03-26T18:24:24.562Z,6.92
2023-03-26T18:26:58.526Z,6.89
2023-03-26T18:29:29.559Z,6.85
2023-03-26T18:32:00.631Z,6.72
2023-03-26T18:34:32.055Z,6.92
2023-03-26T18:37:14.782Z,6.93
2023-03-26T18:39:46.396Z,7.02
2023-03-26T18:42:24.140Z,7.10
2023-03-26T18:44:59.916Z,7.03
2023-03-26T18:47:31.644Z,7.15
2023-03-26T18:50:01.297Z,7.20
2023-03-26T18:52:31.390Z,7.07
2023-03-26T18:55:01.923Z,7.11
2023-03-26T18:57:31.536Z,7.02
2023-03-26T19:00:16.283Z,6.86
2023-03-26T19:02:46.286Z,6.88
2023-03-26T19:05:17.336Z,6.82
2023-03-26T19:07:47.280Z,6.78
2023-03-26T19:10:22.305Z,6.82
2023-03-26T19:12:58.473Z,6.75
2023-03-26T19:15:28.974Z,6.60
2023-03-26T19:18:03.916Z,6.78
2023-03-26T19:20:39.465Z,6.65
2023-03-26T19:23:10.486Z,6.60
2023-03-26T19:25:42.222Z,6.56
2023-03-26T19:28:18.019Z,6.55
2023-03-26T19:30:47.348Z,6.50
2023-03-26T19:33:18.871Z,6.44
2023-03-26T19:35:53.290Z,6.37
2023-03-26T19:38:25.661Z,6.45
2023-03-26T19:40:57.097Z,6.48
2023-03-26T19:43:26.898Z,6.38
2023-03-26T19:46:00.112Z,6.30
2023-03-26T19:48:46.317Z,6.37
2023-03-26T19:51:23.144Z,6.24
2023-03-26T19:53:55.589Z,6.19
2023-03-26T19:56:26.890Z,5.74
2023-03-26T19:58:55.976Z,5.82
2023-03-26T20:01:26.870Z,5.61
2023-03-26T20:03:58.024Z,5.78
2023-03-26T20:06:41.502Z,5.99
2023-03-26T20:09:12.719Z,5.95
2023-03-26T20:11:43.549Z,5.99
2023-03-26T20:14:13.060Z,6.07
2023-03-26T20:16:43.882Z,5.96
2023-03-26T20:19:14.881Z,5.91
2023-03-26T20:21:44.958Z,5.82
2023-03-26T20:24:15.850Z,5.74
2023-03-26T20:26:46.972Z,5.63
2023-03-26T20:29:16.095Z,5.64
2023-03-26T20:31:46.002Z,5.66
2023-03-26T20:34:17.867Z,5.63
2023-03-26T20:36:47.250Z,5.58
2023-03-26T20:39:16.278Z,5.58
2023-03-26T20:41:48.520Z,5.48
2023-03-26T20:44:19.756Z,5.16
2023-03-26T20:46:52.637Z,5.08
2023-03-26T20:49:23.047Z,4.92
2023-03-26T20:51:51.946Z,4.90
2023-03-26T20:54:23.550Z,5.01
2023-03-26T20:56:54.786Z,5.25
2023-03-26T20:59:26.918Z,5.41
2023-03-26T21:01:57.827Z,5.37
2023-03-26T21:04:27.798Z,5.16
2023-03-26T21:07:07.228Z,5.11
2023-03-26T21:09:45.149Z,5.33
2023-03-26T21:12:31.182Z,5.48
2023-03-26T21:15:03.233Z,5.46
2023-03-26T21:17:34.566Z,5.55
2023-03-26T21:20:12.076Z,5.64
2023-03-26T21:22:46.253Z,5.67
2023-03-26T21:25:21.960Z,5.69
2023-03-26T21:28:02.579Z,5.52
2023-03-26T21:30:32.932Z,5.48
2023-03-26T21:33:02.303Z,5.40
2023-03-26T21:35:32.036Z,5.44
2023-03-26T21:38:01.630Z,5.42
2023-03-26T21:40:30.838Z,5.37
2023-03-26T21:43:01.950Z,5.27
2023-03-26T21:45:31.781Z,5.21
2023-03-26T21:48:02.511Z,5.31
2023-03-26T21:50:32.135Z,5.27
2023-03-26T21:53:01.597Z,5.22
2023-03-26T21:55:30.984Z,5.18
2023-03-26T21:58:17.159Z,5.19
2023-03-26T22:00:55.916Z,5.15
2023-03-26T22:03:27.687Z,5.12
2023-03-26T22:06:01.185Z,5.16
2023-03-26T22:08:32.496Z,5.07
2023-03-26T22:11:01.521Z,5.11
2023-03-26T22:13:31.394Z,5.09
2023-03-26T22:16:00.262Z,5.18
2023-03-26T22:18:30.343Z,5.04
2023-03-26T22:21:00.470Z,4.99
2023-03-26T22:23:34.378Z,4.83
2023-03-26T22:26:03.493Z,4.82
2023-03-26T22:28:33.562Z,4.84
2023-03-26T22:31:07.448Z,4.76
2023-03-26T22:33:37.010Z,4.78
2023-03-26T22:36:06.625Z,4.78
2023-03-26T22:38:54.279Z,4.86
2023-03-26T22:41:23.909Z,4.72
2023-03-26T22:43:55.239Z,4.86
2023-03-26T22:46:24.799Z,4.86
2023-03-26T22:48:54.322Z,4.84
2023-03-26T22:51:23.208Z,4.84
2023-03-26T22:53:52.185Z,4.84
2023-03-26T22:56:21.021Z,4.88
2023-03-26T22:58:49.492Z,4.88
2023-03-26T23:01:21.463Z,4.95
2023-03-26T23:03:51.026Z,4.90
2023-03-26T23:06:20.010Z,4.91
2023-03-26T23:08:48.960Z,4.90
2023-03-26T23:11:19.857Z,4.86
2023-03-26T23:13:48.871Z,4.86
2023-03-26T23:16:21.746Z,4.85
2023-03-26T23:18:50.769Z,4.83
2023-03-26T23:21:21.184Z,4.82
2023-03-26T23:23:51.707Z,4.83
2023-03-26T23:26:20.783Z,4.77
2023-03-26T23:28:51.196Z,4.50
2023-03-26T23:31:21.757Z,4.74
2023-03-26T23:33:50.669Z,4.72
2023-03-26T23:36:20.660Z,4.77
2023-03-26T23:38:50.062Z,4.75
2023-03-26T23:41:21.623Z,4.74
2023-03-26T23:43:55.586Z,4.72
2023-03-26T23:46:30.478Z,4.79
2023-03-26T23:49:02.676Z,4.81
2023-03-26T23:51:32.812Z,4.82
2023-03-26T23:54:02.478Z,4.75
2023-03-26T23:56:32.038Z,4.68
2023-03-26T23:59:01.128Z,4.78
